createdAt,value
2022-09-23T00:00:17.154Z,25.8
2022-09-23T00:01:18.871Z,25.8
2022-09-23T00:02:21.155Z,25.7
2022-09-23T00:03:23.022Z,25.7
2022-09-23T00:04:24.689Z,25.8
2022-09-23T00:05:26.821Z,25.7
2022-09-23T00:06:28.439Z,25.8
2022-09-23T00:07:30.117Z,25.8
2022-09-23T00:08:31.823Z,25.8
2022-09-23T00:09:33.519Z,25.8
2022-09-23T00:10:35.152Z,25.8
2022-09-23T00:11:36.781Z,25.7
2022-09-23T00:12:38.441Z,25.8
2022-09-23T00:13:40.097Z,25.7
2022-09-23T00:14:41.692Z,25.8
2022-09-23T00:15:43.483Z,25.8
2022-09-23T00:16:45.345Z,25.8
2022-09-23T00:17:47.393Z,25.8
2022-09-23T00:18:48.932Z,25.8
2022-09-23T00:19:50.602Z,25.8
2022-09-23T00:20:52.368Z,25.8
2022-09-23T00:21:53.904Z,25.7
2022-09-23T00:22:55.528Z,25.7
2022-09-23T00:23:57.270Z,25.8
2022-09-23T00:24:58.886Z,25.8
2022-09-23T00:26:00.513Z,25.8
2022-09-23T00:27:02.118Z,25.8
2022-09-23T00:28:03.627Z,25.8
2022-09-23T00:29:05.274Z,25.8
2022-09-23T00:30:06.821Z,25.7
2022-09-23T00:31:08.633Z,25.7
2022-09-23T00:32:10.535Z,25.7
2022-09-23T00:33:12.074Z,25.8
2022-09-23T00:34:13.710Z,25.7
2022-09-23T00:35:15.377Z,25.8
2022-09-23T00:36:17.154Z,25.7
2022-09-23T00:37:18.814Z,25.8
2022-09-23T00:38:20.366Z,25.6
2022-09-23T00:39:22.138Z,25.6
2022-09-23T00:40:23.815Z,25.5
2022-09-23T00:41:25.842Z,25.6
2022-09-23T00:42:27.587Z,25.6
2022-09-23T00:43:29.337Z,25.7
2022-09-23T00:44:30.881Z,25.7
2022-09-23T00:45:32.520Z,25.7
2022-09-23T00:46:34.335Z,25.8
2022-09-23T00:47:36.245Z,25.9
2022-09-23T00:48:37.745Z,25.9
2022-09-23T00:49:39.417Z,25.9
2022-09-23T00:50:41.078Z,25.9
2022-09-23T00:51:42.907Z,25.9
2022-09-23T00:52:44.658Z,25.9
2022-09-23T00:53:46.209Z,26
2022-09-23T00:54:47.842Z,25.9
2022-09-23T00:55:49.494Z,25.9
2022-09-23T00:56:51.100Z,25.9
2022-09-23T00:57:52.604Z,25.9
2022-09-23T00:58:54.219Z,25.9
2022-09-23T00:59:55.966Z,25.9
2022-09-23T01:00:57.664Z,26
2022-09-23T01:01:59.711Z,25.9
2022-09-23T01:03:01.743Z,26
2022-09-23T01:04:03.570Z,25.9
2022-09-23T01:05:05.320Z,25.9
2022-09-23T01:06:06.990Z,26
2022-09-23T01:07:08.765Z,25.9
2022-09-23T01:08:10.363Z,25.9
2022-09-23T01:09:12.113Z,25.9
2022-09-23T01:10:13.752Z,25.9
2022-09-23T01:11:15.371Z,25.9
2022-09-23T01:12:16.918Z,25.9
2022-09-23T01:13:18.455Z,25.9
2022-09-23T01:14:20.229Z,25.9
2022-09-23T01:15:21.790Z,25.9
2022-09-23T01:16:23.644Z,25.9
2022-09-23T01:17:25.513Z,25.9
2022-09-23T01:18:27.027Z,26
2022-09-23T01:19:28.730Z,25.9
2022-09-23T01:20:30.410Z,25.9
2022-09-23T01:21:32.191Z,25.9
2022-09-23T01:22:33.943Z,25.9
2022-09-23T01:23:35.532Z,25.9
2022-09-23T01:24:37.195Z,25.9
2022-09-23T01:25:38.770Z,25.9
2022-09-23T01:26:40.340Z,25.9
2022-09-23T01:27:42.023Z,25.9
2022-09-23T01:28:46.435Z,25.9
2022-09-23T01:29:48.082Z,26
2022-09-23T01:30:49.843Z,26
2022-09-23T01:31:51.821Z,26
2022-09-23T01:32:53.413Z,26
2022-09-23T01:33:55.171Z,26
2022-09-23T01:34:56.824Z,25.9
2022-09-23T01:35:58.568Z,26
2022-09-23T01:37:00.205Z,26
2022-09-23T01:38:02.060Z,26
2022-09-23T01:39:03.807Z,26
2022-09-23T01:40:05.594Z,26
2022-09-23T01:41:07.711Z,26
2022-09-23T01:42:09.402Z,26
2022-09-23T01:43:10.927Z,26
2022-09-23T01:44:12.465Z,26
2022-09-23T01:45:14.012Z,26
2022-09-23T01:46:15.834Z,26
2022-09-23T01:47:17.590Z,26
2022-09-23T01:48:19.401Z,26
2022-09-23T01:49:21.349Z,26.1
2022-09-23T01:50:22.938Z,26
2022-09-23T01:51:24.500Z,26
2022-09-23T01:52:26.364Z,26
2022-09-23T01:53:28.170Z,26
2022-09-23T01:54:29.704Z,26
2022-09-23T01:55:31.301Z,26
2022-09-23T01:56:32.847Z,26
2022-09-23T01:57:34.552Z,26
2022-09-23T01:58:36.094Z,25.9
2022-09-23T01:59:37.573Z,26
2022-09-23T02:00:39.201Z,25.9
2022-09-23T02:01:40.932Z,26
2022-09-23T02:02:43.161Z,26
2022-09-23T02:03:45.339Z,26
2022-09-23T02:04:46.983Z,26
2022-09-23T02:05:48.633Z,26
2022-09-23T02:06:50.204Z,26.1
2022-09-23T02:07:51.949Z,26
2022-09-23T02:08:53.711Z,26
2022-09-23T02:09:55.319Z,26
2022-09-23T02:10:56.959Z,26
2022-09-23T02:11:59.117Z,25.9
2022-09-23T02:13:00.763Z,26
2022-09-23T02:14:02.435Z,25.9
2022-09-23T02:15:04.210Z,26
2022-09-23T02:16:05.905Z,26.1
2022-09-23T02:17:07.453Z,26
2022-09-23T02:18:08.996Z,26
2022-09-23T02:19:10.741Z,26
2022-09-23T02:20:12.379Z,26
2022-09-23T02:21:14.024Z,26
2022-09-23T02:22:15.648Z,26
2022-09-23T02:23:17.449Z,26
2022-09-23T02:24:19.209Z,25.9
2022-09-23T02:25:20.854Z,25.9
2022-09-23T02:26:22.564Z,25.9
2022-09-23T02:27:24.212Z,26
2022-09-23T02:28:25.746Z,25.9
2022-09-23T02:29:27.369Z,25.9
2022-09-23T02:30:29.080Z,26
2022-09-23T02:31:30.831Z,26
2022-09-23T02:32:32.695Z,26
2022-09-23T02:33:34.346Z,25.9
2022-09-23T02:34:35.991Z,26
2022-09-23T02:35:37.776Z,26
2022-09-23T02:36:39.526Z,26
2022-09-23T02:37:41.166Z,25.9
2022-09-23T02:38:42.732Z,26
2022-09-23T02:39:44.602Z,25.9
2022-09-23T02:40:46.459Z,25.9
2022-09-23T02:41:48.465Z,26
2022-09-23T02:42:50.245Z,25.9
2022-09-23T02:43:52.009Z,26
2022-09-23T02:44:53.604Z,25.9
2022-09-23T02:45:55.260Z,26
2022-09-23T02:46:57.305Z,26
2022-09-23T02:47:58.956Z,26
2022-09-23T02:49:00.525Z,25.9
2022-09-23T02:50:02.195Z,26
2022-09-23T02:51:04.194Z,26
2022-09-23T02:52:05.721Z,25.9
2022-09-23T02:53:07.382Z,26
2022-09-23T02:54:12.032Z,26
2022-09-23T02:55:13.852Z,26
2022-09-23T02:56:15.600Z,26
2022-09-23T02:57:17.241Z,25.9
2022-09-23T02:58:18.886Z,25.9
2022-09-23T02:59:20.509Z,25.9
2022-09-23T03:00:22.155Z,25.9
2022-09-23T03:01:24.014Z,25.9
2022-09-23T03:02:26.089Z,25.9
2022-09-23T03:03:28.244Z,25.9
2022-09-23T03:04:29.869Z,26
2022-09-23T03:05:31.551Z,26
2022-09-23T03:06:33.273Z,26
2022-09-23T03:07:35.027Z,25.9
2022-09-23T03:08:36.699Z,25.9
2022-09-23T03:09:38.452Z,26
2022-09-23T03:10:40.228Z,25.9
2022-09-23T03:11:41.910Z,26
2022-09-23T03:12:43.866Z,26
2022-09-23T03:13:45.374Z,25.9
2022-09-23T03:14:47.095Z,25.9
2022-09-23T03:15:48.661Z,25.9
2022-09-23T03:16:50.255Z,26
2022-09-23T03:17:52.499Z,26
2022-09-23T03:18:54.046Z,26
2022-09-23T03:19:55.687Z,26
2022-09-23T03:20:57.330Z,26
2022-09-23T03:21:58.895Z,26
2022-09-23T03:23:00.530Z,26
2022-09-23T03:24:02.454Z,25.9
2022-09-23T03:25:04.346Z,25.9
2022-09-23T03:26:06.111Z,26
2022-09-23T03:27:07.659Z,26
2022-09-23T03:28:09.463Z,26
2022-09-23T03:29:11.029Z,26
2022-09-23T03:30:12.655Z,26
2022-09-23T03:31:14.525Z,26
2022-09-23T03:32:16.676Z,25.9
2022-09-23T03:33:18.509Z,26
2022-09-23T03:34:20.050Z,25.9
2022-09-23T03:35:21.802Z,25.9
2022-09-23T03:36:23.329Z,25.9
2022-09-23T03:37:25.061Z,25.9
2022-09-23T03:38:26.607Z,25.9
2022-09-23T03:39:28.149Z,25.9
2022-09-23T03:40:30.106Z,25.9
2022-09-23T03:41:32.225Z,25.9
2022-09-23T03:42:33.765Z,25.9
2022-09-23T03:43:39.147Z,25.9
2022-09-23T03:44:40.908Z,25.9
2022-09-23T03:45:42.636Z,25.8
2022-09-23T03:46:44.555Z,25.9
2022-09-23T03:47:48.771Z,25.9
2022-09-23T03:48:50.562Z,25.8
2022-09-23T03:49:52.100Z,25.9
2022-09-23T03:50:53.749Z,25.9
2022-09-23T03:51:55.280Z,25.9
2022-09-23T03:52:57.038Z,25.9
2022-09-23T03:53:58.692Z,25.9
2022-09-23T03:55:00.597Z,25.9
2022-09-23T03:56:02.381Z,25.9
2022-09-23T03:57:04.207Z,25.9
2022-09-23T03:58:05.751Z,25.9
2022-09-23T03:59:07.439Z,25.9
2022-09-23T04:00:08.971Z,25.9
2022-09-23T04:01:10.738Z,25.8
2022-09-23T04:02:12.927Z,25.8
2022-09-23T04:03:14.925Z,25.8
2022-09-23T04:04:16.478Z,25.8
2022-09-23T04:05:18.013Z,25.8
2022-09-23T04:06:19.673Z,25.8
2022-09-23T04:07:21.303Z,25.9
2022-09-23T04:08:23.152Z,25.9
2022-09-23T04:09:24.683Z,25.8
2022-09-23T04:10:26.227Z,25.8
2022-09-23T04:11:28.111Z,25.8
2022-09-23T04:12:29.880Z,25.8
2022-09-23T04:13:31.430Z,25.9
2022-09-23T04:14:33.226Z,25.8
2022-09-23T04:15:34.762Z,25.9
2022-09-23T04:16:36.552Z,25.9
2022-09-23T04:17:38.773Z,25.9
2022-09-23T04:18:40.371Z,25.9
2022-09-23T04:19:42.081Z,25.9
2022-09-23T04:20:43.814Z,25.9
2022-09-23T04:21:45.457Z,25.9
2022-09-23T04:22:47.104Z,25.9
2022-09-23T04:23:48.605Z,25.9
2022-09-23T04:24:50.151Z,26
2022-09-23T04:25:51.835Z,26
2022-09-23T04:26:53.609Z,26.1
2022-09-23T04:27:55.368Z,26.1
2022-09-23T04:28:56.935Z,26.1
2022-09-23T04:29:58.487Z,26.1
2022-09-23T04:31:00.161Z,26
2022-09-23T04:32:01.692Z,26
2022-09-23T04:33:03.313Z,26
2022-09-23T04:34:04.956Z,26
2022-09-23T04:35:06.649Z,26
2022-09-23T04:36:08.389Z,26
2022-09-23T04:37:09.943Z,26
2022-09-23T04:38:11.494Z,26
2022-09-23T04:39:13.224Z,26
2022-09-23T04:40:14.913Z,26
2022-09-23T04:41:16.576Z,26
2022-09-23T04:42:18.286Z,26
2022-09-23T04:43:20.215Z,26
2022-09-23T04:44:21.757Z,26
2022-09-23T04:45:23.335Z,26
2022-09-23T04:46:25.109Z,26
2022-09-23T04:47:27.102Z,26
2022-09-23T04:48:28.748Z,26
2022-09-23T04:49:30.403Z,26
2022-09-23T04:50:32.039Z,25.9
2022-09-23T04:51:33.647Z,25.9
2022-09-23T04:52:35.183Z,25.9
2022-09-23T04:53:36.975Z,26
2022-09-23T04:54:38.656Z,26
2022-09-23T04:55:40.232Z,26
2022-09-23T04:56:41.856Z,26
2022-09-23T04:57:43.583Z,26
2022-09-23T04:58:45.348Z,26
2022-09-23T04:59:47.010Z,25.9
2022-09-23T05:00:48.729Z,26
2022-09-23T05:01:50.886Z,26
2022-09-23T05:02:52.739Z,25.9
2022-09-23T05:03:54.345Z,26
2022-09-23T05:04:55.991Z,25.9
2022-09-23T05:05:57.529Z,25.9
2022-09-23T05:07:03.637Z,25.9
2022-09-23T05:08:05.331Z,26
2022-09-23T05:09:07.388Z,26
2022-09-23T05:10:09.579Z,26
2022-09-23T05:11:11.231Z,26
2022-09-23T05:12:12.830Z,25.9
2022-09-23T05:13:14.505Z,25.9
2022-09-23T05:14:16.330Z,26
2022-09-23T05:15:17.873Z,26
2022-09-23T05:16:19.666Z,26
2022-09-23T05:17:21.673Z,26
2022-09-23T05:18:23.321Z,26
2022-09-23T05:19:24.983Z,25.9
2022-09-23T05:20:29.419Z,26
2022-09-23T05:21:30.968Z,26
2022-09-23T05:22:32.611Z,26
2022-09-23T05:23:34.209Z,26
2022-09-23T05:24:35.854Z,26.1
2022-09-23T05:25:38.614Z,26
2022-09-23T05:26:40.384Z,26
2022-09-23T05:27:42.204Z,26
2022-09-23T05:28:43.899Z,25.9
2022-09-23T05:29:45.718Z,25.9
2022-09-23T05:30:47.573Z,25.9
2022-09-23T05:31:49.374Z,25.9
2022-09-23T05:32:51.662Z,25.9
2022-09-23T05:33:53.330Z,25.9
2022-09-23T05:34:54.946Z,25.9
2022-09-23T05:35:56.471Z,25.9
2022-09-23T05:37:00.738Z,25.9
2022-09-23T05:38:02.301Z,25.9
2022-09-23T05:39:03.976Z,25.8
2022-09-23T05:40:05.774Z,25.8
2022-09-23T05:41:07.600Z,25.8
2022-09-23T05:42:09.142Z,25.8
2022-09-23T05:43:10.688Z,25.8
2022-09-23T05:44:12.461Z,25.8
2022-09-23T05:45:14.287Z,25.8
2022-09-23T05:46:16.104Z,25.8
2022-09-23T05:47:18.088Z,25.8
2022-09-23T05:48:19.820Z,25.8
2022-09-23T05:49:48.575Z,25.8
2022-09-23T05:51:02.314Z,25.8
2022-09-23T05:52:03.847Z,25.8
2022-09-23T05:53:05.383Z,25.7
2022-09-23T05:54:07.348Z,25.7
2022-09-23T05:55:09.480Z,25.8
2022-09-23T05:56:11.055Z,25.8
2022-09-23T05:57:12.715Z,25.8
2022-09-23T05:58:14.375Z,25.8
2022-09-23T05:59:16.042Z,25.7
2022-09-23T06:00:17.872Z,25.7
2022-09-23T06:01:19.465Z,25.7
2022-09-23T06:02:21.498Z,25.6
2022-09-23T06:03:23.502Z,25.6
2022-09-23T06:04:25.472Z,25.6
2022-09-23T06:05:27.005Z,25.7
2022-09-23T06:06:28.665Z,25.7
2022-09-23T06:07:30.246Z,25.6
2022-09-23T06:08:31.808Z,25.6
2022-09-23T06:09:39.659Z,25.6
2022-09-23T06:10:41.203Z,25.6
2022-09-23T06:11:42.838Z,25.6
2022-09-23T06:12:44.463Z,25.6
2022-09-23T06:13:46.328Z,25.6
2022-09-23T06:14:47.998Z,25.6
2022-09-23T06:15:50.031Z,25.6
2022-09-23T06:16:51.917Z,25.5
2022-09-23T06:17:53.517Z,25.5
2022-09-23T06:18:55.051Z,25.5
2022-09-23T06:19:59.353Z,25.5
2022-09-23T06:21:01.019Z,25.5
2022-09-23T06:22:02.581Z,25.5
2022-09-23T06:23:09.297Z,25.5
2022-09-23T06:24:21.505Z,25.5
2022-09-23T06:25:32.938Z,25.5
2022-09-23T06:26:34.531Z,25.5
2022-09-23T06:27:36.189Z,25.4
2022-09-23T06:28:37.797Z,25.4
2022-09-23T06:29:39.680Z,25.4
2022-09-23T06:30:41.340Z,25.4
2022-09-23T06:31:43.508Z,25.3
2022-09-23T06:32:45.573Z,25.3
2022-09-23T06:33:47.111Z,25.3
2022-09-23T06:34:52.242Z,25.3
2022-09-23T06:36:00.147Z,25.3
2022-09-23T06:37:19.516Z,25.3
2022-09-23T06:38:23.459Z,25.2
2022-09-23T06:39:25.069Z,25.2
2022-09-23T06:40:26.924Z,25.2
2022-09-23T06:41:28.939Z,25.2
2022-09-23T06:42:30.656Z,25.2
2022-09-23T06:43:32.267Z,25.1
2022-09-23T06:44:33.989Z,25.1
2022-09-23T06:45:35.653Z,25.1
2022-09-23T06:46:37.496Z,25.1
2022-09-23T06:47:39.736Z,25.1
2022-09-23T06:48:46.519Z,25.1
2022-09-23T06:49:48.195Z,25
2022-09-23T06:50:49.795Z,25
2022-09-23T06:51:51.395Z,25
2022-09-23T06:52:52.987Z,25
2022-09-23T06:53:54.525Z,25
2022-09-23T06:54:56.115Z,25
2022-09-23T06:55:57.803Z,25
2022-09-23T06:56:59.527Z,25
2022-09-23T06:58:01.172Z,25
2022-09-23T06:59:02.861Z,24.9
2022-09-23T07:00:04.556Z,25
2022-09-23T07:01:06.214Z,24.9
2022-09-23T07:02:08.371Z,24.9
2022-09-23T07:03:10.566Z,24.9
2022-09-23T07:04:12.109Z,24.9
2022-09-23T07:05:13.623Z,24.9
2022-09-23T07:06:15.563Z,24.9
2022-09-23T07:07:17.301Z,24.9
2022-09-23T07:08:18.838Z,24.9
2022-09-23T07:09:20.463Z,24.9
2022-09-23T07:10:22.003Z,24.9
2022-09-23T07:11:23.685Z,24.9
2022-09-23T07:12:25.321Z,24.9
2022-09-23T07:13:26.865Z,24.9
2022-09-23T07:14:28.513Z,24.9
2022-09-23T07:15:30.061Z,24.8
2022-09-23T07:16:31.771Z,24.8
2022-09-23T07:17:33.688Z,24.8
2022-09-23T07:18:37.429Z,24.8
2022-09-23T07:19:39.350Z,24.8
2022-09-23T07:20:41.018Z,24.8
2022-09-23T07:21:42.695Z,24.8
2022-09-23T07:22:44.233Z,24.7
2022-09-23T07:23:45.817Z,24.7
2022-09-23T07:24:47.564Z,24.7
2022-09-23T07:25:49.126Z,24.7
2022-09-23T07:26:50.815Z,24.7
2022-09-23T07:27:52.428Z,24.7
2022-09-23T07:28:54.109Z,24.7
2022-09-23T07:29:55.750Z,24.7
2022-09-23T07:31:01.262Z,24.7
2022-09-23T07:32:14.179Z,24.7
2022-09-23T07:33:32.388Z,24.6
2022-09-23T07:34:35.516Z,24.6
2022-09-23T07:35:37.132Z,24.6
2022-09-23T07:36:38.659Z,24.6
2022-09-23T07:37:40.241Z,24.6
2022-09-23T07:38:45.953Z,24.6
2022-09-23T07:39:47.731Z,24.6
2022-09-23T07:40:49.516Z,24.6
2022-09-23T07:41:51.364Z,24.6
2022-09-23T07:42:52.966Z,24.6
2022-09-23T07:43:54.504Z,24.6
2022-09-23T07:44:56.157Z,24.6
2022-09-23T07:45:57.931Z,24.6
2022-09-23T07:46:59.697Z,24.6
2022-09-23T07:48:01.234Z,24.6
2022-09-23T07:49:02.970Z,24.6
2022-09-23T07:50:04.795Z,24.6
2022-09-23T07:51:06.543Z,24.6
2022-09-23T07:52:08.197Z,24.6
2022-09-23T07:53:09.945Z,24.6
2022-09-23T07:54:11.563Z,24.6
2022-09-23T07:55:20.802Z,24.6
2022-09-23T07:56:22.871Z,24.6
2022-09-23T07:57:24.460Z,24.6
2022-09-23T07:58:26.145Z,24.6
2022-09-23T07:59:27.767Z,24.6
2022-09-23T08:00:29.438Z,24.6
2022-09-23T08:01:31.244Z,24.6
2022-09-23T08:02:33.374Z,24.6
2022-09-23T08:03:35.440Z,24.6
2022-09-23T08:04:37.318Z,24.6
2022-09-23T08:05:39.068Z,24.5
2022-09-23T08:06:40.726Z,24.5
2022-09-23T08:07:42.497Z,24.5
2022-09-23T08:08:44.141Z,24.5
2022-09-23T08:09:45.779Z,24.5
2022-09-23T08:10:47.426Z,24.5
2022-09-23T08:11:49.077Z,24.6
2022-09-23T08:12:50.626Z,24.5
2022-09-23T08:13:52.132Z,24.6
2022-09-23T08:14:53.801Z,24.6
2022-09-23T08:15:55.990Z,24.5
2022-09-23T08:16:57.912Z,24.6
2022-09-23T08:17:59.446Z,24.5
2022-09-23T08:19:01.658Z,24.6
2022-09-23T08:20:03.900Z,24.6
2022-09-23T08:21:05.866Z,24.5
2022-09-23T08:22:07.570Z,24.5
2022-09-23T08:23:09.110Z,24.6
2022-09-23T08:24:10.721Z,24.6
2022-09-23T08:25:12.403Z,24.6
2022-09-23T08:27:21.718Z,24.6
2022-09-23T08:28:23.313Z,24.5
2022-09-23T08:29:24.872Z,24.5
2022-09-23T08:30:26.429Z,24.5
2022-09-23T08:31:28.287Z,24.5
2022-09-23T08:32:30.045Z,24.5
2022-09-23T08:33:31.754Z,24.5
2022-09-23T08:34:33.440Z,24.5
2022-09-23T08:35:35.112Z,24.5
2022-09-23T08:36:36.996Z,24.5
2022-09-23T08:37:38.550Z,24.5
2022-09-23T08:38:40.289Z,24.5
2022-09-23T08:39:41.811Z,24.7
2022-09-23T08:40:43.586Z,24.9
2022-09-23T08:41:45.371Z,23.9
2022-09-23T08:42:46.906Z,23.9
2022-09-23T08:43:48.622Z,24.2
2022-09-23T08:44:50.263Z,24.6
2022-09-23T08:45:51.887Z,24.7
2022-09-23T08:46:53.620Z,24.9
2022-09-23T08:47:55.195Z,24.9
2022-09-23T08:48:56.803Z,25
2022-09-23T08:49:58.353Z,24.8
2022-09-23T08:51:00.063Z,24.6
2022-09-23T08:52:01.922Z,24.6
2022-09-23T08:53:03.494Z,24.7
2022-09-23T08:54:05.092Z,24.6
2022-09-23T08:55:07.341Z,24.6
2022-09-23T08:56:08.888Z,24.7
2022-09-23T08:57:10.511Z,24.7
2022-09-23T08:58:26.122Z,24.7
2022-09-23T08:59:28.784Z,24.7
2022-09-23T09:00:30.367Z,24.6
2022-09-23T09:01:32.175Z,24.6
2022-09-23T09:02:34.159Z,24.6
2022-09-23T09:03:36.039Z,24.7
2022-09-23T09:04:37.580Z,24.7
2022-09-23T09:05:39.137Z,24.7
2022-09-23T09:06:54.217Z,24.6
2022-09-23T09:08:33.425Z,24.5
2022-09-23T09:09:35.014Z,24.5
2022-09-23T09:10:36.556Z,24.4
2022-09-23T09:11:38.103Z,24.4
2022-09-23T09:12:39.640Z,24.4
2022-09-23T09:13:41.180Z,24.4
2022-09-23T09:14:42.763Z,24.4
2022-09-23T09:15:44.469Z,24.5
2022-09-23T09:17:01.069Z,24.4
2022-09-23T09:18:03.441Z,24.4
2022-09-23T09:19:05.175Z,24.4
2022-09-23T09:20:06.926Z,24.4
2022-09-23T09:21:08.611Z,24.4
2022-09-23T09:22:10.193Z,24.4
2022-09-23T09:23:12.020Z,24.4
2022-09-23T09:24:13.656Z,24.4
2022-09-23T09:25:15.311Z,24.4
2022-09-23T09:26:17.022Z,24.4
2022-09-23T09:27:18.641Z,24.4
2022-09-23T09:28:20.207Z,24.4
2022-09-23T09:29:36.450Z,24.3
2022-09-23T09:30:39.013Z,24.3
2022-09-23T09:31:41.000Z,24.4
2022-09-23T09:32:42.561Z,24.3
2022-09-23T09:33:44.109Z,24.4
2022-09-23T09:34:48.481Z,24.4
2022-09-23T09:35:50.023Z,24.3
2022-09-23T09:36:51.736Z,24.3
2022-09-23T09:37:53.918Z,24.3
2022-09-23T09:38:55.822Z,24.3
2022-09-23T09:39:57.396Z,24.3
2022-09-23T09:40:58.938Z,24.3
2022-09-23T09:42:00.584Z,24.3
2022-09-23T09:43:02.159Z,24.3
2022-09-23T09:44:03.846Z,24.3
2022-09-23T09:45:05.466Z,24.2
2022-09-23T09:46:07.091Z,24.2
2022-09-23T09:47:08.626Z,24.3
2022-09-23T09:48:10.171Z,24.4
2022-09-23T09:49:11.727Z,24.3
2022-09-23T09:50:13.311Z,24.1
2022-09-23T09:51:14.984Z,24.1
2022-09-23T09:52:16.562Z,24.1
2022-09-23T09:53:18.174Z,24.1
2022-09-23T09:54:19.877Z,24.1
2022-09-23T09:55:21.434Z,24.1
2022-09-23T09:56:23.043Z,24.1
2022-09-23T09:57:24.620Z,24.1
2022-09-23T09:58:26.233Z,24.1
2022-09-23T09:59:27.806Z,24.1
2022-09-23T10:00:29.338Z,24.1
2022-09-23T10:01:31.075Z,24.1
2022-09-23T10:02:33.017Z,24
2022-09-23T10:03:34.659Z,24
2022-09-23T10:04:36.323Z,24
2022-09-23T10:05:38.195Z,24
2022-09-23T10:06:39.803Z,24
2022-09-23T10:07:41.650Z,24
2022-09-23T10:08:43.230Z,24
2022-09-23T10:09:45.033Z,24
2022-09-23T10:10:46.603Z,24.1
2022-09-23T10:11:48.145Z,23.9
2022-09-23T10:12:49.771Z,23.9
2022-09-23T10:13:51.316Z,23.9
2022-09-23T10:14:52.897Z,23.8
2022-09-23T10:15:54.608Z,23.8
2022-09-23T10:16:56.578Z,23.9
2022-09-23T10:17:58.684Z,24
2022-09-23T10:19:00.616Z,23.9
2022-09-23T10:20:02.254Z,23.9
2022-09-23T10:21:03.891Z,24
2022-09-23T10:22:05.501Z,24
2022-09-23T10:23:07.042Z,23.9
2022-09-23T10:24:08.770Z,23.9
2022-09-23T10:25:10.374Z,23.9
2022-09-23T10:26:11.942Z,23.9
2022-09-23T10:27:13.537Z,23.9
2022-09-23T10:28:15.150Z,23.9
2022-09-23T10:29:16.685Z,23.8
2022-09-23T10:30:18.253Z,23.9
2022-09-23T10:31:19.791Z,23.8
2022-09-23T10:32:21.338Z,23.8
2022-09-23T10:33:22.993Z,23.8
2022-09-23T10:34:24.551Z,23.8
2022-09-23T10:35:26.161Z,23.7
2022-09-23T10:36:27.724Z,23.7
2022-09-23T10:37:29.467Z,23.7
2022-09-23T10:38:31.075Z,23.7
2022-09-23T10:39:32.703Z,23.9
2022-09-23T10:40:34.428Z,23.8
2022-09-23T10:41:36.283Z,23.7
2022-09-23T10:42:37.872Z,23.6
2022-09-23T10:43:39.466Z,23.6
2022-09-23T10:44:41.085Z,23.8
2022-09-23T10:45:43.570Z,23.7
2022-09-23T10:46:45.576Z,23.6
2022-09-23T10:47:47.160Z,23.6
2022-09-23T10:48:48.743Z,23.7
2022-09-23T10:49:50.283Z,23.5
2022-09-23T10:50:51.896Z,23.6
2022-09-23T10:51:53.448Z,23.5
2022-09-23T10:52:54.997Z,23.4
2022-09-23T10:53:56.606Z,23.4
2022-09-23T10:54:58.322Z,23.3
2022-09-23T10:56:00.058Z,23.3
2022-09-23T10:57:01.870Z,23.3
2022-09-23T10:58:03.652Z,23.3
2022-09-23T10:59:05.253Z,23.1
2022-09-23T11:00:06.902Z,23.1
2022-09-23T11:01:08.581Z,23.1
2022-09-23T11:02:10.443Z,23.1
2022-09-23T11:03:12.010Z,23.1
2022-09-23T11:04:14.510Z,23.1
2022-09-23T11:05:16.697Z,23.2
2022-09-23T11:06:18.471Z,23.2
2022-09-23T11:07:20.196Z,23.2
2022-09-23T11:08:21.847Z,23.4
2022-09-23T11:09:23.512Z,23.3
2022-09-23T11:10:46.705Z,23.4
2022-09-23T11:11:48.874Z,23.3
2022-09-23T11:12:50.474Z,23.3
2022-09-23T11:13:54.931Z,23.4
2022-09-23T11:14:56.827Z,23.3
2022-09-23T11:15:58.478Z,23.2
2022-09-23T11:17:00.150Z,23.3
2022-09-23T11:18:02.175Z,23.4
2022-09-23T11:19:06.592Z,23.3
2022-09-23T11:20:08.238Z,23.3
2022-09-23T11:21:09.918Z,23.3
2022-09-23T11:22:11.632Z,23.3
2022-09-23T11:23:13.376Z,23.3
2022-09-23T11:24:14.956Z,23.4
2022-09-23T11:25:16.868Z,23.3
2022-09-23T11:26:18.691Z,23.3
2022-09-23T11:27:20.423Z,23.3
2022-09-23T11:28:22.088Z,23.3
2022-09-23T11:29:23.640Z,23.4
2022-09-23T11:30:25.324Z,23.4
2022-09-23T11:31:27.147Z,23.3
2022-09-23T11:32:28.794Z,23.3
2022-09-23T11:33:30.448Z,23.2
2022-09-23T11:34:32.138Z,23.3
2022-09-23T11:35:33.641Z,23.3
2022-09-23T11:36:35.480Z,23.2
2022-09-23T11:37:37.077Z,23.3
2022-09-23T11:38:38.651Z,23.2
2022-09-23T11:39:40.206Z,23.3
2022-09-23T11:40:46.719Z,23.2
2022-09-23T11:41:48.864Z,23.2
2022-09-23T11:42:50.566Z,23.1
2022-09-23T11:43:52.836Z,23.1
2022-09-23T11:44:54.386Z,23.1
2022-09-23T11:45:56.160Z,23
2022-09-23T11:46:58.023Z,23.1
2022-09-23T11:47:59.627Z,23.2
2022-09-23T11:49:01.269Z,23.1
2022-09-23T11:50:02.908Z,23
2022-09-23T11:51:04.555Z,23
2022-09-23T11:52:06.199Z,23
2022-09-23T11:53:07.775Z,23
2022-09-23T11:54:09.437Z,22.9
2022-09-23T11:55:22.484Z,23.1
2022-09-23T11:56:36.091Z,23
2022-09-23T11:57:49.718Z,22.9
2022-09-23T11:58:59.492Z,22.9
2022-09-23T12:00:01.802Z,22.8
2022-09-23T12:01:03.438Z,22.8
2022-09-23T12:02:20.564Z,22.8
2022-09-23T12:03:44.844Z,22.8
2022-09-23T12:04:58.237Z,22.7
2022-09-23T12:06:01.051Z,22.8
2022-09-23T12:07:03.173Z,22.8
2022-09-23T12:08:04.987Z,22.8
2022-09-23T12:09:06.521Z,22.7
2022-09-23T12:10:08.073Z,22.7
2022-09-23T12:11:09.644Z,22.7
2022-09-23T12:12:11.261Z,23
2022-09-23T12:13:12.926Z,22.8
2022-09-23T12:14:14.803Z,22.8
2022-09-23T12:15:16.499Z,22.9
2022-09-23T12:16:18.178Z,22.8
2022-09-23T12:17:20.114Z,22.8
2022-09-23T12:18:23.591Z,22.7
2022-09-23T12:19:25.141Z,22.9
2022-09-23T12:20:26.698Z,22.8
2022-09-23T12:21:51.232Z,22.9
2022-09-23T12:22:53.311Z,22.8
2022-09-23T12:23:54.851Z,22.7
2022-09-23T12:24:56.417Z,22.7
2022-09-23T12:25:58.041Z,22.6
2022-09-23T12:26:59.577Z,22.6
2022-09-23T12:28:01.166Z,22.9
2022-09-23T12:29:02.798Z,22.8
2022-09-23T12:30:04.557Z,22.8
2022-09-23T12:31:06.514Z,22.7
2022-09-23T12:32:08.465Z,22.7
2022-09-23T12:33:10.015Z,22.8
2022-09-23T12:34:11.717Z,22.7
2022-09-23T12:35:13.576Z,22.6
2022-09-23T12:36:15.157Z,22.7
2022-09-23T12:37:16.707Z,22.8
2022-09-23T12:38:18.274Z,22.6
2022-09-23T12:39:19.914Z,22.6
2022-09-23T12:40:21.706Z,22.6
2022-09-23T12:41:23.681Z,22.6
2022-09-23T12:42:31.462Z,22.6
2022-09-23T12:43:33.327Z,22.5
2022-09-23T12:44:35.056Z,22.6
2022-09-23T12:45:37.145Z,22.6
2022-09-23T12:46:39.347Z,22.5
2022-09-23T12:47:40.854Z,22.6
2022-09-23T12:48:42.624Z,22.6
2022-09-23T12:49:44.168Z,22.7
2022-09-23T12:50:45.826Z,22.5
2022-09-23T12:51:47.471Z,22.7
2022-09-23T12:52:49.120Z,22.7
2022-09-23T12:53:50.731Z,22.7
2022-09-23T12:54:52.520Z,22.6
2022-09-23T12:55:54.433Z,22.6
2022-09-23T12:56:56.212Z,22.6
2022-09-23T12:57:57.845Z,22.5
2022-09-23T12:58:59.703Z,22.4
2022-09-23T13:00:01.354Z,22.5
2022-09-23T13:01:03.460Z,22.5
2022-09-23T13:02:05.550Z,22.6
2022-09-23T13:03:07.555Z,22.5
2022-09-23T13:04:09.108Z,22.6
2022-09-23T13:05:10.912Z,22.7
2022-09-23T13:06:12.655Z,22.6
2022-09-23T13:07:14.302Z,22.5
2022-09-23T13:08:15.951Z,22.6
2022-09-23T13:09:17.571Z,22.4
2022-09-23T13:10:19.447Z,22.4
2022-09-23T13:11:21.197Z,22.5
2022-09-23T13:12:22.985Z,22.6
2022-09-23T13:13:24.620Z,22.5
2022-09-23T13:14:27.965Z,22.6
2022-09-23T13:15:29.638Z,22.5
2022-09-23T13:16:34.484Z,22.5
2022-09-23T13:17:36.528Z,22.5
2022-09-23T13:18:38.152Z,22.5
2022-09-23T13:19:40.095Z,22.5
2022-09-23T13:20:41.735Z,22.5
2022-09-23T13:21:43.481Z,22.6
2022-09-23T13:22:45.231Z,22.5
2022-09-23T13:23:46.877Z,22.5
2022-09-23T13:24:48.518Z,22.5
2022-09-23T13:25:50.164Z,22.6
2022-09-23T13:26:51.871Z,22.5
2022-09-23T13:27:53.557Z,22.6
2022-09-23T13:28:55.111Z,22.5
2022-09-23T13:29:56.729Z,22.6
2022-09-23T13:31:00.560Z,22.6
2022-09-23T13:32:02.544Z,22.6
2022-09-23T13:33:04.649Z,22.6
2022-09-23T13:34:06.507Z,22.6
2022-09-23T13:35:08.653Z,22.6
2022-09-23T13:36:10.370Z,22.6
2022-09-23T13:37:12.153Z,22.6
2022-09-23T13:38:13.708Z,22.8
2022-09-23T13:39:15.472Z,22.7
2022-09-23T13:40:17.336Z,22.6
2022-09-23T13:41:19.283Z,22.9
2022-09-23T13:42:21.094Z,22.8
2022-09-23T13:43:22.638Z,22.9
2022-09-23T13:44:24.345Z,23
2022-09-23T13:45:26.168Z,22.8
2022-09-23T13:46:28.152Z,22.7
2022-09-23T13:47:30.040Z,22.6
2022-09-23T13:48:31.678Z,22.6
2022-09-23T13:49:33.217Z,22.6
2022-09-23T13:50:35.463Z,22.6
2022-09-23T13:51:37.105Z,22.6
2022-09-23T13:52:38.754Z,22.6
2022-09-23T13:53:40.532Z,22.6
2022-09-23T13:54:42.153Z,22.6
2022-09-23T13:55:43.694Z,22.6
2022-09-23T13:56:45.706Z,22.6
2022-09-23T13:57:47.351Z,22.6
2022-09-23T13:58:48.952Z,22.7
2022-09-23T13:59:50.810Z,22.6
2022-09-23T14:00:52.572Z,22.7